Terminal Aerodrome Forecast
Issued by NWS Portland, OR

Home | Current Version | Previous Version | Text Only | Print | Product List | Glossary On
Versions: 1 2 3 4 5 6 7 8 9 10 11 12 13 14 15 16 17 18 19 20 21 22 23 24 25 26 27 28 29 30
000
FTUS46 KPQR 240523
TAFAST
TAF
KAST 240523Z 2406/2506 31016G22KT P6SM SCT025 OVC035
     FM240900 29010G18KT P6SM BKN025
     FM242100 29015G25KT P6SM BKN030 BKN045
     FM250400 31008KT P6SM OVC025=

USA.gov is the U.S. government's official web portal to all federal, state and local government web resources and services.